Bei Facebook empfehlenBei Twitter postenGoogle plusPinterest

Das Wetter im Erzgebirge am 04.06.2015

Wetter und Klima am 04.06.2015 Holzhau im Erzgebirge (630m ü.NN)
Letzte gemessene Temperatur und Uhrzeit der Messung23:45:00 Uhr8.60 °C
Temperatur (Maximum / Höchstwert) und Uhrzeit der Messung16:15:00 Uhr21.80 °C
Temperatur (Minimum / Tiefstwert) und Uhrzeit der Messung05:30:004.90 °C
Errechneter Absolutwert der Temperaturschwankungen zwischen Tmin und Tmax des Tages16.90 K
Errechnete Tagesmitteltemperatur14.47188 °C
Gesamt - Niederschlag des Tages (in flüssiger Form)0.00 Liter / m²
Luftdruck (Maximum / Höchstwert) und Zeitpunkt der Messung10:00:00 Uhr1026.40 hPa
Luftdruck (Minimum / Tiefstwert) und Zeitpunkt der Messung00:15:00 Uhr1024.00 hPa
Errechneter Absolutwert der Luftdruckschwankungen des Tages2.40 hPa
Höchste gemessene Windgeschwindigkeit und Uhrzeit der Messung13:45:00 Uhr12.24 km/h
Errechnete Windhäufigkeit in Relation zu den Messwerten des Tages12.50000 %
Niedrigste Windkühle (Windchill) und Zeitpunkt der Messung05:30:00 Uhr4.90 °C
Taupunkt (Maximum / Höchstwert) und Uhrzeit der Messung14:30:00 Uhr10.00 °C
Taupunkt (Minimum / Tiefstwert) und Uhrzeit der Messung04:30:002.50 °C
Anzahl der automatisch eingelesenen Messwerte 96

Detaillierte Wetter- und Klima- Messwerte für den 04.06.2015 in Holzhau im Erzgebirge (630m ü.NN)
ZeitTemperaturLuftdruckRel. LuftfeuchteWindWindrichtungWindchillTaupunktNiederschlag l/m²
23:45:008.60 °C1024.80 hPa76.00 %4.60 °C 
23:30:008.80 °C1024.90 hPa75.00 %4.60 °C 
23:15:009.20 °C1024.90 hPa74.00 %4.80 °C 
23:00:009.60 °C1024.90 hPa73.00 %5.00 °C 
22:45:009.90 °C1024.90 hPa72.00 %5.10 °C 
22:30:0010.30 °C1024.80 hPa71.00 %5.30 °C 
22:15:0010.60 °C1024.80 hPa71.00 %5.60 °C 
22:00:0010.90 °C1024.70 hPa69.00 %5.40 °C 
21:45:0011.40 °C1024.60 hPa67.00 %5.50 °C 
21:30:0012.30 °C1024.70 hPa64.00 %5.70 °C 
21:15:0013.30 °C1024.40 hPa61.00 %5.90 °C 
21:00:0014.40 °C1024.40 hPa58.00 %6.30 °C 
20:45:0015.60 °C1024.30 hPa54.00 %6.30 °C 
20:30:0016.30 °C1024.50 hPa52.00 %6.40 °C 
20:15:0016.90 °C1024.30 hPa51.00 %6.70 °C 
20:00:0017.80 °C1024.50 hPa50.00 %7.20 °C 
19:45:0018.30 °C1024.30 hPa49.00 %7.40 °C 
19:30:0018.50 °C1024.10 hPa49.00 %6.12 km/hNNO19.20 °C7.60 °C 
19:15:0018.90 °C1024.20 hPa48.00 %7.70 °C 
19:00:0019.20 °C1024.10 hPa47.00 %7.60 °C 
18:45:0019.50 °C1024.30 hPa47.00 %7.90 °C 
18:30:0019.90 °C1024.20 hPa47.00 %2.88 km/hONO19.90 °C8.30 °C 
18:15:0020.20 °C1024.40 hPa46.00 %8.20 °C 
18:00:0020.30 °C1024.30 hPa46.00 %8.30 °C 
17:45:0020.60 °C1024.20 hPa46.00 %8.60 °C 
17:30:0020.60 °C1024.50 hPa45.00 %8.30 °C 
17:15:0020.90 °C1024.60 hPa45.00 %8.50 °C 
17:00:0021.10 °C1024.70 hPa45.00 %8.70 °C 
16:45:0021.10 °C1024.80 hPa45.00 %7.20 km/hOSO22.10 °C8.70 °C 
16:30:0021.60 °C1024.80 hPa45.00 %9.20 °C 
16:15:0021.80 °C1025.20 hPa46.00 %3.96 km/hONO21.80 °C9.70 °C 
16:00:0021.40 °C1025.10 hPa46.00 %7.20 km/hNO22.50 °C9.30 °C 
15:45:0021.30 °C1025.20 hPa45.00 %7.20 km/hS22.30 °C8.90 °C 
15:30:0021.30 °C1025.20 hPa48.00 %9.90 °C 
15:15:0021.10 °C1025.40 hPa46.00 %10.80 km/hOSO21.80 °C9.00 °C 
15:00:0020.80 °C1025.50 hPa48.00 %9.40 °C 
14:45:0020.60 °C1025.60 hPa45.00 %6.84 km/hSO21.60 °C8.30 °C 
14:30:0021.80 °C1025.60 hPa47.00 %10.00 °C 
14:15:0021.40 °C1025.50 hPa46.00 %2.52 km/hOSO21.40 °C9.30 °C 
14:00:0021.20 °C1025.60 hPa47.00 %9.40 °C 
13:45:0021.10 °C1025.70 hPa46.00 %12.24 km/hSO21.70 °C9.00 °C 
13:30:0020.80 °C1025.60 hPa49.00 %9.70 °C 
13:15:0019.90 °C1025.90 hPa48.00 %8.28 km/hSSO20.60 °C8.60 °C 
13:00:0020.40 °C1026.10 hPa47.00 %8.70 °C 
12:45:0020.50 °C1026.00 hPa46.00 %4.68 km/hSO20.50 °C8.50 °C 
12:30:0020.90 °C1026.10 hPa48.00 %9.50 °C 
12:15:0020.50 °C1025.90 hPa48.00 %9.10 °C 
12:00:0020.20 °C1026.10 hPa48.00 %8.80 °C 
11:45:0020.90 °C1026.20 hPa47.00 %9.20 °C 
11:30:0020.00 °C1026.10 hPa49.00 %9.00 °C 
11:15:0020.10 °C1026.20 hPa48.00 %8.80 °C 
11:00:0019.90 °C1026.10 hPa49.00 %8.90 °C 
10:45:0019.90 °C1026.20 hPa49.00 %8.90 °C 
10:30:0018.90 °C1026.30 hPa52.00 %8.80 °C 
10:15:0018.10 °C1026.20 hPa51.00 %7.80 °C 
10:00:0017.30 °C1026.40 hPa55.00 %8.20 °C 
09:45:0017.00 °C1026.40 hPa55.00 %7.90 °C 
09:30:0017.30 °C1026.20 hPa54.00 %7.90 °C 
09:15:0016.90 °C1026.30 hPa55.00 %7.80 °C 
09:00:0016.70 °C1026.20 hPa57.00 %8.10 °C 
08:45:0016.40 °C1026.30 hPa58.00 %8.10 °C 
08:30:0016.10 °C1026.20 hPa59.00 %8.10 °C 
08:15:0016.30 °C1026.20 hPa60.00 %8.50 °C 
08:00:0015.80 °C1026.10 hPa64.00 %9.00 °C 
07:45:0014.90 °C1026.10 hPa68.00 %9.10 °C 
07:30:0013.50 °C1026.10 hPa74.00 %9.00 °C 
07:15:0010.40 °C1026.10 hPa84.00 %7.80 °C 
07:00:007.10 °C1025.90 hPa86.00 %4.90 °C 
06:45:006.40 °C1025.80 hPa86.00 %4.20 °C 
06:30:005.90 °C1025.90 hPa87.00 %3.90 °C 
06:15:005.50 °C1025.80 hPa86.00 %3.30 °C 
06:00:005.20 °C1025.70 hPa86.00 %3.10 °C 
05:45:005.10 °C1025.60 hPa87.00 %3.10 °C 
05:30:004.90 °C1025.40 hPa86.00 %2.80 °C 
05:15:004.90 °C1025.30 hPa86.00 %2.80 °C 
05:00:004.90 °C1025.10 hPa86.00 %2.80 °C 
04:45:004.90 °C1025.00 hPa85.00 %2.60 °C 
04:30:005.00 °C1025.00 hPa84.00 %2.50 °C 
04:15:005.30 °C1025.00 hPa83.00 %2.70 °C 
04:00:005.60 °C1024.90 hPa83.00 %2.90 °C 
03:45:005.90 °C1024.80 hPa82.00 %3.10 °C 
03:30:006.10 °C1024.80 hPa81.00 %3.10 °C 
03:15:006.60 °C1024.80 hPa80.00 %3.40 °C 
03:00:007.10 °C1024.70 hPa79.00 %3.70 °C 
02:45:007.80 °C1024.80 hPa78.00 %4.20 °C 
02:30:008.40 °C1024.70 hPa77.00 %4.60 °C 
02:15:009.30 °C1024.60 hPa76.00 %5.30 °C 
02:00:009.90 °C1024.60 hPa75.00 %5.70 °C 
01:45:0010.10 °C1024.40 hPa75.00 %5.90 °C 
01:30:0010.10 °C1024.40 hPa76.00 %6.10 °C 
01:15:009.90 °C1024.40 hPa77.00 %6.10 °C 
01:00:009.80 °C1024.40 hPa77.00 %6.00 °C 
00:45:009.80 °C1024.20 hPa77.00 %6.00 °C 
00:30:009.50 °C1024.20 hPa78.00 %5.90 °C 
00:15:009.20 °C1024.00 hPa77.00 %5.40 °C 
00:00:009.10 °C1024.00 hPa75.00 %4.90 °C 

Permanenter Link zu dieser Seite: Wetter im Erzgebirge am 04.06.2015
Performance-Info: Die Erstellung der Seite / Statistik(en) / Tabelle(n) erforderte 5 Datenbankserver-Abfrage(n) und dauerte 97 Millisekunden. (Dieser Messwert ist von der Gesamt-Auslastung des Servers abhängig.)
Erzgebirge - Wetter | Erzgebirge - Wetter (Mobilgeräte) | Komplette Klimadatenbank